Time;durP1;ratioP1;P1;durP2;ratioP2;P2;SDS_P1;SDS_P2;PMS_P1;PMS_P2;Temp;Humidity;BMP_temperature;BMP_pressure;BME280_temperature;BME280_humidity;BME280_pressure;Samples;Min_cycle;Max_cycle;Signal;HPM_P1;HPM_P2
2023/01/23 00:00:47;;;;;;;7.38;7.28;;;1.90;99.90;;;;;;5174317;23;20353;-82
2023/01/23 00:03:07;;;;;;;5.95;5.85;;;1.80;99.90;;;;;;5172358;23;20026;-82
2023/01/23 00:05:27;;;;;;;6.60;6.50;;;1.90;99.90;;;;;;5180695;23;20023;-82
2023/01/23 00:07:48;;;;;;;8.70;8.60;;;1.90;99.90;;;;;;5152974;23;20081;-82
2023/01/23 00:10:09;;;;;;;5.50;5.45;;;1.90;99.90;;;;;;5161320;23;20092;-82
2023/01/23 00:12:28;;;;;;;6.45;6.35;;;1.90;99.90;;;;;;5152832;23;20024;-82
2023/01/23 00:14:48;;;;;;;5.65;5.55;;;2.00;99.90;;;;;;5161297;23;20051;-82
2023/01/23 00:17:08;;;;;;;6.95;6.85;;;2.00;99.90;;;;;;5172277;23;20354;-82
2023/01/23 00:19:28;;;;;;;8.50;8.32;;;1.90;99.90;;;;;;5152734;23;20027;-82
2023/01/23 00:21:48;;;;;;;5.13;4.93;;;2.00;99.90;;;;;;5172026;23;20407;-82
2023/01/23 00:24:11;;;;;;;6.22;6.13;;;2.00;99.90;;;;;;5172144;23;20065;-82
2023/01/23 00:26:32;;;;;;;5.78;5.78;;;1.90;99.90;;;;;;5173483;23;20023;-82
2023/01/23 00:28:52;;;;;;;6.00;5.90;;;2.00;99.90;;;;;;5173390;23;20369;-82
2023/01/23 00:31:25;;;;;;;5.13;5.03;;;2.10;99.90;;;;;;5173455;23;20027;-82
2023/01/23 00:33:45;;;;;;;4.97;4.97;;;2.00;99.90;;;;;;5153863;23;20023;-82
2023/01/23 00:36:06;;;;;;;4.63;4.63;;;2.00;99.90;;;;;;5129112;23;20088;-82
2023/01/23 00:38:26;;;;;;;4.82;4.82;;;2.00;99.90;;;;;;5151360;23;20051;-82
2023/01/23 00:40:46;;;;;;;4.90;4.90;;;2.10;99.90;;;;;;5151743;23;20334;-82
2023/01/23 00:43:06;;;;;;;3.90;3.90;;;2.10;99.90;;;;;;5181836;23;20023;-82
2023/01/23 00:45:26;;;;;;;4.70;4.70;;;2.20;99.90;;;;;;5173345;23;20099;-82
2023/01/23 00:47:46;;;;;;;4.78;4.70;;;2.10;99.90;;;;;;5181888;23;20039;-82
2023/01/23 00:50:06;;;;;;;3.15;3.15;;;2.10;99.90;;;;;;5173455;23;20027;-82
2023/01/23 00:52:26;;;;;;;3.88;3.88;;;2.10;99.90;;;;;;5175340;23;20026;-82
2023/01/23 00:54:46;;;;;;;4.70;4.70;;;2.10;99.90;;;;;;5154033;23;20212;-82
2023/01/23 00:57:06;;;;;;;4.03;4.03;;;2.20;99.90;;;;;;5154069;23;20067;-82
2023/01/23 00:59:26;;;;;;;3.45;3.45;;;2.10;99.90;;;;;;5173295;23;20023;-82
2023/01/23 01:01:45;;;;;;;3.88;3.88;;;2.20;99.90;;;;;;5175183;23;20027;-82
2023/01/23 01:04:05;;;;;;;4.22;4.22;;;2.30;99.90;;;;;;5181815;23;20118;-82
2023/01/23 01:06:25;;;;;;;3.55;3.55;;;2.20;99.90;;;;;;5153914;23;20027;-82
2023/01/23 01:08:45;;;;;;;4.20;4.20;;;2.10;99.90;;;;;;5153834;23;20224;-82
2023/01/23 01:11:06;;;;;;;4.05;3.72;;;2.00;99.90;;;;;;5182147;23;20051;-82
2023/01/23 01:13:26;;;;;;;3.60;3.60;;;2.00;99.90;;;;;;5153895;23;20057;-82
2023/01/23 01:15:51;;;;;;;3.83;3.83;;;2.00;99.90;;;;;;5173155;23;20039;-82
2023/01/23 01:18:10;;;;;;;4.35;4.25;;;2.10;99.90;;;;;;5173326;23;20100;-82
2023/01/23 01:20:30;;;;;;;4.50;4.50;;;2.30;99.90;;;;;;5153902;23;20024;-82
2023/01/23 01:22:50;;;;;;;4.10;4.10;;;2.40;99.90;;;;;;5153810;23;20028;-82
2023/01/23 01:25:10;;;;;;;3.97;3.97;;;2.50;99.90;;;;;;5153954;23;20031;-82
2023/01/23 01:27:30;;;;;;;4.78;4.78;;;2.50;99.90;;;;;;5175309;23;20396;-82
2023/01/23 01:29:51;;;;;;;4.38;4.38;;;2.40;99.90;;;;;;5153990;23;20051;-82
2023/01/23 01:32:10;;;;;;;3.53;3.53;;;2.40;99.90;;;;;;5176428;23;20023;-82
2023/01/23 01:34:31;;;;;;;3.45;3.45;;;2.40;99.90;;;;;;5176161;23;20050;-82
2023/01/23 01:36:51;;;;;;;3.90;3.75;;;2.40;99.90;;;;;;5150955;23;20051;-82
2023/01/23 01:39:11;;;;;;;4.30;4.30;;;2.40;99.90;;;;;;5150109;23;20027;-82
2023/01/23 01:41:31;;;;;;;4.32;4.32;;;2.40;99.90;;;;;;5151170;23;20100;-81
2023/01/23 01:43:52;;;;;;;4.47;4.47;;;2.40;99.90;;;;;;5152253;23;20366;-82
2023/01/23 01:46:12;;;;;;;4.05;4.05;;;2.40;99.90;;;;;;5175224;23;20023;-82
2023/01/23 01:48:48;;;;;;;3.42;3.42;;;2.50;99.90;;;;;;5173191;23;20023;-82
2023/01/23 01:51:31;;;;;;;3.92;3.92;;;2.60;99.90;;;;;;5173203;23;20115;-82
2023/01/23 01:54:18;;;;;;;4.70;4.70;;;2.50;99.90;;;;;;5153901;23;20042;-82
2023/01/23 01:56:54;;;;;;;4.60;4.60;;;2.50;99.90;;;;;;5173152;23;20030;-82
2023/01/23 01:59:15;;;;;;;4.40;4.40;;;2.60;99.90;;;;;;5176367;23;20027;-81
2023/01/23 02:01:35;;;;;;;5.03;4.93;;;2.50;99.90;;;;;;5183712;23;20054;-81
2023/01/23 02:03:56;;;;;;;4.13;4.13;;;2.50;99.90;;;;;;5151220;23;20338;-81
2023/01/23 02:06:16;;;;;;;3.95;3.95;;;2.40;99.90;;;;;;5150398;23;20063;-82
2023/01/23 02:09:10;;;;;;;4.82;4.82;;;2.50;99.90;;;;;;5173020;23;20039;-82
2023/01/23 02:11:30;;;;;;;;;;;2.50;99.90;;;;;;5154174;23;20027;-82
2023/01/23 02:13:52;;;;;;;6.07;4.32;;;2.40;99.90;;;;;;5183380;23;19957;-82
2023/01/23 02:16:16;;;;;;;3.97;3.97;;;2.40;99.90;;;;;;5173114;23;20042;-81
2023/01/23 02:18:43;;;;;;;4.18;4.18;;;2.40;99.90;;;;;;5153722;23;20047;-81
2023/01/23 02:21:06;;;;;;;5.32;5.32;;;2.40;99.90;;;;;;5172926;23;20019;-81
2023/01/23 02:23:45;;;;;;;2.58;2.58;;;2.40;99.90;;;;;;5173007;23;20051;-81
2023/01/23 02:26:11;;;;;;;4.72;4.72;;;2.40;99.90;;;;;;5153765;23;20307;-81
2023/01/23 02:28:39;;;;;;;4.20;4.20;;;2.40;99.90;;;;;;5176239;23;20035;-81
2023/01/23 02:30:59;;;;;;;4.00;4.00;;;2.50;99.90;;;;;;5173442;23;20402;-81
2023/01/23 02:33:19;;;;;;;3.60;3.60;;;2.50;99.90;;;;;;5129311;23;20087;-81
2023/01/23 02:35:39;;;;;;;4.03;4.03;;;2.50;99.90;;;;;;5153651;23;20035;-81
2023/01/23 02:38:02;;;;;;;3.88;3.88;;;2.50;99.90;;;;;;5173064;23;20088;-81
2023/01/23 02:40:35;;;;;;;3.58;3.58;;;2.50;99.90;;;;;;5172916;23;20057;-81
2023/01/23 02:42:57;;;;;;;4.93;4.93;;;2.60;99.90;;;;;;5172945;23;20222;-82
2023/01/23 02:45:17;;;;;;;4.85;4.85;;;2.50;99.90;;;;;;5153681;23;20031;-82
2023/01/23 02:47:37;;;;;;;4.18;4.18;;;2.50;99.90;;;;;;5152900;23;20043;-81
2023/01/23 02:49:56;;;;;;;4.35;4.35;;;2.60;99.90;;;;;;5172863;23;20100;-81
2023/01/23 02:52:17;;;;;;;4.72;4.72;;;2.60;99.90;;;;;;5174936;23;20023;-81
2023/01/23 02:54:38;;;;;;;4.07;4.07;;;2.50;99.90;;;;;;5172897;23;20026;-81
2023/01/23 02:56:58;;;;;;;3.83;3.83;;;2.50;99.90;;;;;;5172846;23;20069;-81
2023/01/23 03:01:57;;;;;;;4.50;4.50;;;2.50;99.90;;;;;;5181247;23;20362;-81
2023/01/23 03:04:17;;;;;;;4.72;4.65;;;2.50;99.90;;;;;;5181252;23;20249;-81
2023/01/23 03:06:37;;;;;;;3.05;3.05;;;2.40;99.90;;;;;;5175939;23;20022;-81
2023/01/23 03:08:58;;;;;;;5.53;5.53;;;2.50;99.90;;;;;;5176008;23;20062;-81
2023/01/23 03:11:18;;;;;;;3.80;3.80;;;2.40;99.90;;;;;;5153160;23;20051;-81
2023/01/23 03:13:38;;;;;;;3.92;3.92;;;2.40;99.90;;;;;;5159030;23;20023;-82
2023/01/23 03:15:58;;;;;;;4.68;4.68;;;2.40;99.90;;;;;;5157943;23;20029;-81
2023/01/23 03:18:19;;;;;;;4.80;4.80;;;2.30;99.90;;;;;;5128784;23;20023;-81
2023/01/23 03:20:40;;;;;;;4.60;4.60;;;2.30;99.90;;;;;;5153435;23;20399;-81
2023/01/23 03:23:00;;;;;;;4.68;4.68;;;2.20;99.90;;;;;;5172597;23;20094;-81
2023/01/23 03:25:19;;;;;;;4.28;4.28;;;2.20;99.90;;;;;;5172664;23;20074;-81
2023/01/23 03:27:39;;;;;;;4.18;4.18;;;2.20;99.90;;;;;;5180998;23;20027;-81
2023/01/23 03:30:15;;;;;;;3.53;3.53;;;2.20;99.90;;;;;;5161659;23;20051;-82
2023/01/23 03:32:37;;;;;;;4.15;4.15;;;2.20;99.90;;;;;;5161535;23;20024;-81
2023/01/23 03:34:58;;;;;;;4.43;4.43;;;2.20;99.90;;;;;;5172603;23;20026;-81
2023/01/23 03:37:18;;;;;;;4.68;4.68;;;2.30;99.90;;;;;;5172538;23;20272;-82
2023/01/23 03:42:17;;;;;;;4.80;4.80;;;2.30;99.90;;;;;;5172377;23;20346;-82
2023/01/23 03:44:37;;;;;;;4.32;4.28;;;2.30;99.90;;;;;;5172525;23;20074;-82
2023/01/23 03:46:57;;;;;;;3.55;3.55;;;2.30;99.90;;;;;;5174413;23;20253;-81
2023/01/23 03:49:17;;;;;;;4.55;4.55;;;2.20;99.90;;;;;;5180853;23;20023;-82
2023/01/23 03:51:37;;;;;;;4.25;4.25;;;2.20;99.90;;;;;;5161510;23;20063;-81
2023/01/23 03:53:57;;;;;;;4.57;4.57;;;2.20;99.90;;;;;;5175568;23;20063;-81
2023/01/23 03:56:17;;;;;;;4.82;4.82;;;2.20;99.90;;;;;;5175564;23;20106;-82
2023/01/23 03:58:37;;;;;;;4.03;4.03;;;2.20;99.90;;;;;;5174690;23;20267;-81
2023/01/23 04:00:57;;;;;;;5.05;5.05;;;2.20;99.90;;;;;;5129296;23;20055;-81
2023/01/23 04:03:17;;;;;;;3.72;3.72;;;2.10;99.90;;;;;;5150404;23;20043;-82
2023/01/23 04:05:38;;;;;;;3.35;3.35;;;2.10;99.90;;;;;;5160638;23;20062;-81
2023/01/23 04:07:58;;;;;;;4.70;4.70;;;2.10;99.90;;;;;;5173603;23;20028;-81
2023/01/23 04:10:18;;;;;;;4.85;4.85;;;2.10;99.90;;;;;;5182008;23;20027;-82
2023/01/23 04:12:40;;;;;;;4.78;4.78;;;2.10;99.90;;;;;;5173526;23;20238;-82
2023/01/23 04:15:00;;;;;;;4.93;4.93;;;2.10;99.90;;;;;;5162590;23;20312;-82
2023/01/23 04:17:20;;;;;;;4.75;4.75;;;2.00;99.90;;;;;;5173645;23;20054;-82
2023/01/23 04:19:40;;;;;;;4.28;4.28;;;2.00;99.90;;;;;;5181835;23;20075;-82
2023/01/23 04:22:00;;;;;;;4.60;4.60;;;2.00;99.90;;;;;;5173387;23;20118;-82
2023/01/23 04:24:20;;;;;;;4.63;4.57;;;2.00;99.90;;;;;;5173375;23;20023;-82
2023/01/23 04:26:40;;;;;;;4.05;4.05;;;2.00;99.90;;;;;;5175386;23;20054;-82
2023/01/23 04:29:00;;;;;;;3.85;3.85;;;2.00;99.90;;;;;;5154178;23;20086;-81
2023/01/23 04:31:20;;;;;;;5.18;5.18;;;2.00;99.90;;;;;;5173463;23;20326;-81
2023/01/23 04:33:40;;;;;;;4.70;4.70;;;2.00;99.90;;;;;;5173279;23;20051;-81
2023/01/23 04:36:03;;;;;;;4.65;4.65;;;2.00;99.90;;;;;;5175465;23;20373;-81
2023/01/23 04:38:25;;;;;;;6.05;6.05;;;2.00;99.90;;;;;;5154166;23;20059;-82
2023/01/23 04:40:46;;;;;;;5.35;5.35;;;2.00;99.90;;;;;;5173446;23;20069;-82
2023/01/23 04:43:06;;;;;;;4.38;4.38;;;1.90;99.90;;;;;;5173493;23;20043;-81
2023/01/23 04:45:26;;;;;;;4.07;4.07;;;1.90;99.90;;;;;;5173438;23;20071;-81
2023/01/23 04:47:46;;;;;;;5.88;5.88;;;1.90;99.90;;;;;;5173326;23;20111;-82
2023/01/23 04:50:06;;;;;;;4.55;4.55;;;1.90;99.90;;;;;;5175386;23;20088;-81
2023/01/23 04:52:26;;;;;;;5.25;5.25;;;1.90;99.90;;;;;;5162425;23;20047;-81
2023/01/23 04:54:46;;;;;;;4.93;4.93;;;1.90;99.90;;;;;;5175353;23;20054;-82
2023/01/23 04:57:06;;;;;;;4.05;4.05;;;1.90;99.90;;;;;;5153353;23;20055;-81
2023/01/23 04:59:26;;;;;;;5.45;5.45;;;1.90;99.90;;;;;;5151400;23;20027;-81
2023/01/23 05:01:47;;;;;;;5.25;5.25;;;1.90;99.90;;;;;;5150155;23;20024;-82
2023/01/23 05:04:06;;;;;;;3.85;3.85;;;1.80;99.90;;;;;;5151733;23;20026;-81
2023/01/23 05:06:26;;;;;;;4.60;4.60;;;1.80;99.90;;;;;;5154073;23;20083;-81
2023/01/23 05:08:46;;;;;;;4.45;4.45;;;1.80;99.90;;;;;;5173363;23;20027;-81
2023/01/23 05:11:06;;;;;;;4.88;4.88;;;1.80;99.90;;;;;;5153496;23;20027;-81
2023/01/23 05:13:26;;;;;;;3.95;3.95;;;1.80;99.90;;;;;;5173318;23;20023;-81
2023/01/23 05:15:46;;;;;;;4.13;4.13;;;1.80;99.90;;;;;;5173347;23;20027;-81
2023/01/23 05:18:07;;;;;;;3.80;3.80;;;1.90;99.90;;;;;;5173246;23;20054;-81
2023/01/23 05:20:26;;;;;;;3.35;3.35;;;1.90;99.90;;;;;;5153897;23;20051;-81
2023/01/23 05:22:52;;;;;;;5.82;5.82;;;1.80;99.90;;;;;;5175170;23;20027;-81
2023/01/23 05:25:12;;;;;;;6.18;6.18;;;1.70;99.90;;;;;;5173234;23;20023;-81
2023/01/23 05:27:32;;;;;;;4.78;4.78;;;1.70;99.90;;;;;;5173216;23;20362;-81
2023/01/23 05:29:52;;;;;;;6.10;6.00;;;1.70;99.90;;;;;;5173304;23;20038;-81
2023/01/23 05:32:12;;;;;;;9.88;9.48;;;1.70;99.90;;;;;;5153898;23;20059;-81
2023/01/23 05:34:32;;;;;;;10.32;10.02;;;1.70;99.90;;;;;;5181398;23;20333;-81
2023/01/23 05:36:52;;;;;;;8.68;8.27;;;1.70;99.90;;;;;;5181604;23;20023;-81
2023/01/23 05:39:12;;;;;;;4.57;4.57;;;1.70;99.90;;;;;;5175278;23;20043;-81
2023/01/23 05:41:32;;;;;;;5.30;5.20;;;1.80;99.90;;;;;;5153611;23;20047;-81
2023/01/23 05:43:52;;;;;;;4.80;4.80;;;1.70;99.90;;;;;;5173307;23;20080;-81
2023/01/23 05:46:11;;;;;;;4.70;4.70;;;1.70;99.90;;;;;;5173232;23;20109;-81
2023/01/23 05:48:31;;;;;;;5.07;5.07;;;1.70;99.90;;;;;;5175100;23;20062;-81
2023/01/23 05:50:51;;;;;;;4.25;4.25;;;1.70;99.90;;;;;;5176339;23;20066;-81
2023/01/23 05:53:11;;;;;;;5.40;5.38;;;1.70;99.90;;;;;;5176336;23;20058;-81
2023/01/23 05:55:31;;;;;;;5.05;5.05;;;1.70;99.90;;;;;;5176569;23;20051;-81
2023/01/23 05:57:51;;;;;;;5.22;5.13;;;1.70;99.90;;;;;;5174853;23;20338;-81
2023/01/23 06:00:13;;;;;;;5.95;5.85;;;1.70;99.90;;;;;;5128995;23;20027;-81
2023/01/23 06:02:33;;;;;;;4.25;4.25;;;1.70;99.90;;;;;;5151020;23;20071;-80
2023/01/23 06:04:53;;;;;;;5.78;5.78;;;1.80;99.90;;;;;;5140915;23;20072;-83
2023/01/23 06:07:17;;;;;;;4.88;4.88;;;1.80;99.90;;;;;;5162572;23;20373;-80
2023/01/23 06:09:37;;;;;;;6.45;6.35;;;1.80;99.90;;;;;;5153800;23;20063;-81
2023/01/23 06:11:56;;;;;;;4.97;4.82;;;1.80;99.90;;;;;;5153642;23;20071;-81
2023/01/23 06:14:16;;;;;;;4.82;4.82;;;1.80;99.90;;;;;;5173116;23;20070;-84
2023/01/23 06:16:36;;;;;;;4.55;4.55;;;1.80;99.90;;;;;;5153608;23;20051;-86
2023/01/23 06:18:56;;;;;;;5.10;5.10;;;1.80;99.90;;;;;;5181416;23;20023;-84
2023/01/23 06:21:17;;;;;;;5.93;5.93;;;1.70;99.90;;;;;;5153846;23;20238;-84
2023/01/23 06:23:37;;;;;;;5.30;5.30;;;1.70;99.90;;;;;;5152934;23;20027;-84
2023/01/23 06:26:02;;;;;;;5.78;5.78;;;1.70;99.90;;;;;;5181409;23;20054;-84
2023/01/23 06:28:22;;;;;;;5.63;5.63;;;1.70;99.90;;;;;;5172972;23;20051;-84
2023/01/23 06:30:42;;;;;;;6.65;6.65;;;1.80;99.90;;;;;;5175115;23;20023;-84
2023/01/23 06:33:02;;;;;;;6.00;6.00;;;1.70;99.90;;;;;;5181348;23;20031;-84
2023/01/23 06:35:21;;;;;;;6.82;6.72;;;1.80;99.90;;;;;;5153409;23;20250;-84
2023/01/23 06:37:42;;;;;;;6.95;6.85;;;1.80;99.90;;;;;;5162132;23;20024;-84
2023/01/23 06:40:02;;;;;;;7.22;7.22;;;1.90;99.90;;;;;;5172970;23;20027;-84
2023/01/23 06:42:22;;;;;;;6.93;6.88;;;1.90;99.90;;;;;;5181182;23;20058;-84
2023/01/23 06:44:42;;;;;;;6.13;5.70;;;2.00;99.90;;;;;;5172928;23;20066;-84
2023/01/23 06:47:02;;;;;;;6.95;6.85;;;2.00;99.90;;;;;;5181384;23;20057;-84
2023/01/23 06:49:22;;;;;;;6.82;6.82;;;1.90;99.90;;;;;;5184448;23;20066;-84
2023/01/23 06:51:42;;;;;;;5.55;5.55;;;1.90;99.90;;;;;;5161990;23;20027;-84
2023/01/23 06:54:02;;;;;;;5.20;5.20;;;1.90;99.90;;;;;;5153576;23;20023;-84
2023/01/23 06:56:22;;;;;;;6.53;6.53;;;1.90;99.90;;;;;;5161742;23;20111;-84
2023/01/23 06:58:45;;;;;;;6.20;6.20;;;2.00;99.90;;;;;;5128722;23;20059;-84
2023/01/23 07:01:14;;;;;;;5.57;5.57;;;2.00;99.90;;;;;;5159149;23;20027;-84
2023/01/23 07:03:34;;;;;;;6.07;6.07;;;2.00;99.90;;;;;;5153615;23;20024;-84
2023/01/23 07:05:55;;;;;;;6.47;6.47;;;2.00;99.90;;;;;;5172671;23;20079;-84
2023/01/23 07:08:15;;;;;;;6.95;6.93;;;2.00;99.90;;;;;;5153546;23;20027;-84
2023/01/23 07:10:39;;;;;;;6.75;6.75;;;1.90;99.90;;;;;;5153462;23;20054;-84
2023/01/23 07:12:58;;;;;;;;;;;1.90;99.90;;;;;;5162185;23;20023;-84
2023/01/23 07:15:18;;;;;;;5.05;5.05;;;1.90;99.90;;;;;;5172783;23;19953;-84
2023/01/23 07:17:37;;;;;;;6.03;5.88;;;1.90;99.90;;;;;;5172776;23;20267;-84
2023/01/23 07:19:57;;;;;;;5.97;5.97;;;2.00;99.90;;;;;;5161681;23;20027;-84
2023/01/23 07:22:19;;;;;;;7.05;6.95;;;2.00;99.90;;;;;;5172584;23;20026;-84
2023/01/23 07:24:39;;;;;;;7.20;7.10;;;1.90;99.90;;;;;;5181193;23;20030;-84
2023/01/23 07:26:58;;;;;;;7.82;7.72;;;1.90;99.90;;;;;;5161575;23;20039;-84
2023/01/23 07:29:18;;;;;;;7.13;7.03;;;1.90;99.90;;;;;;5172579;23;20031;-84
2023/01/23 07:31:38;;;;;;;6.85;6.78;;;1.90;99.90;;;;;;5153382;23;20023;-84
2023/01/23 07:33:58;;;;;;;6.20;6.10;;;1.80;99.90;;;;;;5153498;23;20291;-84
2023/01/23 07:36:18;;;;;;;7.00;6.90;;;1.80;99.90;;;;;;5162574;23;20040;-84
2023/01/23 07:38:39;;;;;;;6.90;6.65;;;1.80;99.90;;;;;;5173682;23;20026;-84
2023/01/23 07:40:59;;;;;;;7.95;7.75;;;1.80;99.90;;;;;;5162542;23;20043;-84
2023/01/23 07:43:19;;;;;;;17.13;15.90;;;1.80;99.90;;;;;;5162719;23;20099;-84
2023/01/23 07:45:39;;;;;;;13.90;13.35;;;1.80;99.90;;;;;;5176836;23;20023;-84
2023/01/23 07:48:00;;;;;;;13.05;12.60;;;1.80;99.90;;;;;;5185297;23;20027;-84
2023/01/23 07:50:20;;;;;;;8.95;8.80;;;1.80;99.90;;;;;;5185150;23;20023;-84
2023/01/23 07:52:40;;;;;;;22.45;20.48;;;1.80;99.90;;;;;;5176051;23;20031;-84
2023/01/23 07:55:01;;;;;;;12.98;12.68;;;1.80;99.90;;;;;;5159892;23;20027;-84
2023/01/23 07:57:21;;;;;;;9.48;9.38;;;1.70;99.90;;;;;;5159895;23;20119;-84
2023/01/23 07:59:41;;;;;;;11.27;11.07;;;1.70;99.90;;;;;;5138307;23;20024;-84
2023/01/23 08:02:01;;;;;;;8.43;8.23;;;1.70;99.90;;;;;;5162566;23;20024;-84
2023/01/23 08:04:21;;;;;;;8.00;7.90;;;1.70;99.90;;;;;;5175495;23;20397;-84
2023/01/23 08:06:42;;;;;;;7.90;7.75;;;1.70;99.90;;;;;;5173617;23;20023;-84
2023/01/23 08:09:02;;;;;;;6.97;6.88;;;1.70;99.90;;;;;;5154232;23;20027;-84
2023/01/23 08:11:22;;;;;;;5.47;5.47;;;1.70;99.90;;;;;;5173541;23;20026;-84
2023/01/23 08:13:42;;;;;;;7.45;7.35;;;1.70;99.90;;;;;;5183838;23;20023;-84
2023/01/23 08:16:03;;;;;;;7.53;7.43;;;1.70;99.90;;;;;;5173628;23;20027;-84
2023/01/23 08:18:23;;;;;;;6.65;6.55;;;1.70;99.90;;;;;;5154171;23;20075;-84
2023/01/23 08:20:43;;;;;;;7.40;7.13;;;1.70;99.90;;;;;;5173519;23;20274;-84
2023/01/23 08:23:02;;;;;;;9.52;9.23;;;1.60;99.90;;;;;;5173552;23;20082;-84
2023/01/23 08:25:22;;;;;;;7.03;6.93;;;1.60;99.90;;;;;;5173528;23;20094;-84
2023/01/23 08:27:42;;;;;;;8.15;7.75;;;1.60;99.90;;;;;;5154150;23;20059;-84
2023/01/23 08:30:06;;;;;;;9.07;8.77;;;1.50;99.90;;;;;;5175470;23;20069;-84
2023/01/23 08:32:26;;;;;;;6.32;6.32;;;1.50;99.90;;;;;;5173531;23;20074;-83
2023/01/23 08:34:46;;;;;;;8.35;8.25;;;1.40;99.90;;;;;;5154146;23;20031;-84
2023/01/23 08:37:06;;;;;;;8.43;8.13;;;1.40;99.90;;;;;;5162364;23;20077;-84
2023/01/23 08:39:26;;;;;;;9.30;9.10;;;1.40;99.90;;;;;;5173454;23;20223;-84
2023/01/23 08:41:47;;;;;;;9.40;9.20;;;1.40;99.90;;;;;;5162325;23;20023;-84
2023/01/23 08:44:06;;;;;;;9.77;9.57;;;1.40;99.90;;;;;;5162298;23;20087;-84
2023/01/23 08:46:28;;;;;;;11.70;11.35;;;1.40;99.90;;;;;;5153766;23;20024;-84
2023/01/23 08:48:47;;;;;;;9.70;9.40;;;1.50;99.90;;;;;;5154214;23;20035;-84
2023/01/23 08:51:11;;;;;;;7.35;7.25;;;1.50;99.90;;;;;;5183798;23;20077;-84
2023/01/23 08:53:32;;;;;;;7.65;7.55;;;1.50;99.90;;;;;;5173744;23;20027;-84
2023/01/23 08:55:52;;;;;;;10.13;9.80;;;1.50;99.90;;;;;;5159758;23;20027;-84
2023/01/23 08:58:12;;;;;;;14.68;13.82;;;1.60;99.90;;;;;;5129873;23;20378;-84
2023/01/23 09:00:32;;;;;;;16.00;14.70;;;1.60;99.90;;;;;;5183772;23;20046;-84
2023/01/23 09:02:52;;;;;;;19.45;17.63;;;1.60;99.90;;;;;;5162313;23;20019;-84
2023/01/23 09:05:12;;;;;;;11.75;11.32;;;1.60;99.90;;;;;;5173318;23;20031;-84
2023/01/23 09:07:35;;;;;;;9.48;9.18;;;1.70;99.90;;;;;;5162237;23;20028;-84
2023/01/23 09:09:55;;;;;;;8.75;8.65;;;1.70;99.90;;;;;;5153978;23;20068;-84
2023/01/23 09:12:14;;;;;;;9.90;9.77;;;1.70;99.90;;;;;;5154018;23;20085;-84
2023/01/23 09:14:34;;;;;;;9.88;9.68;;;1.70;99.90;;;;;;5181640;23;20035;-84
2023/01/23 09:16:54;;;;;;;7.07;6.97;;;1.70;99.90;;;;;;5181788;23;20022;-84
2023/01/23 09:19:14;;;;;;;7.82;7.72;;;1.70;99.90;;;;;;5181692;23;20026;-84
2023/01/23 09:21:34;;;;;;;6.47;6.38;;;1.70;99.90;;;;;;5173099;23;20259;-84
2023/01/23 09:23:55;;;;;;;6.95;6.85;;;1.70;99.90;;;;;;5173271;23;20026;-84
2023/01/23 09:26:15;;;;;;;6.88;6.78;;;1.70;99.90;;;;;;5153907;23;20398;-84
2023/01/23 09:28:41;;;;;;;11.07;10.73;;;1.70;99.90;;;;;;5154627;23;20083;-84
2023/01/23 09:31:03;;;;;;;11.27;11.00;;;1.70;99.90;;;;;;5162173;23;20062;-84
2023/01/23 09:33:26;;;;;;;11.35;11.15;;;1.70;99.90;;;;;;5153933;23;20215;-84
2023/01/23 09:35:50;;;;;;;7.63;7.43;;;1.70;99.90;;;;;;5154028;23;20058;-84
2023/01/23 09:38:10;;;;;;;5.80;5.70;;;1.70;99.90;;;;;;5175141;23;20027;-84
2023/01/23 09:41:01;;;;;;;6.60;6.50;;;1.60;99.90;;;;;;5162223;23;20023;-84
2023/01/23 09:43:30;;;;;;;5.93;5.93;;;1.50;99.90;;;;;;5146830;23;20026;-84
2023/01/23 09:46:10;;;;;;;7.60;7.50;;;1.50;99.90;;;;;;5162170;23;20378;-84
2023/01/23 09:48:41;;;;;;;8.20;8.02;;;1.50;99.90;;;;;;5162274;23;20040;-84
2023/01/23 09:51:13;;;;;;;8.07;7.97;;;1.50;99.90;;;;;;5181668;23;20026;-84
2023/01/23 09:53:39;;;;;;;10.20;9.95;;;1.40;99.90;;;;;;5181498;23;20027;-85
2023/01/23 09:56:06;;;;;;;14.70;13.80;;;1.40;99.90;;;;;;5181489;23;20023;-84
2023/01/23 09:58:33;;;;;;;11.40;11.10;;;1.40;99.90;;;;;;5176357;23;20027;-84
2023/01/23 10:00:53;;;;;;;12.02;11.63;;;1.30;99.90;;;;;;5184781;23;20046;-84
2023/01/23 10:03:15;;;;;;;12.98;12.48;;;1.20;99.90;;;;;;5161282;23;20023;-84
2023/01/23 10:06:07;;;;;;;10.10;9.90;;;1.20;99.90;;;;;;5128840;23;20216;-84
2023/01/23 10:08:38;;;;;;;10.32;10.23;;;1.10;99.90;;;;;;5171964;23;20094;-84
2023/01/23 10:11:06;;;;;;;10.25;10.02;;;1.10;99.90;;;;;;5181509;23;20085;-84
2023/01/23 10:13:48;;;;;;;8.52;8.32;;;1.00;99.90;;;;;;5162220;23;20255;-84
2023/01/23 10:16:13;;;;;;;9.13;8.95;;;0.90;99.90;;;;;;5162114;23;20322;-84
2023/01/23 10:19:09;;;;;;;11.50;11.20;;;0.90;99.90;;;;;;5153649;23;20076;-85
2023/01/23 10:21:36;;;;;;;11.20;10.93;;;0.80;99.90;;;;;;5181490;23;20030;-85
2023/01/23 10:24:31;;;;;;;14.18;13.88;;;0.70;99.90;;;;;;5162098;23;20108;-86
2023/01/23 10:27:30;;;;;;;24.27;23.58;;;0.70;99.90;;;;;;5173065;23;20027;-86
2023/01/23 10:30:04;;;;;;;18.30;17.10;;;0.60;99.90;;;;;;5173011;23;20062;-86
2023/01/23 10:32:36;;;;;;;17.85;16.85;;;0.60;99.90;;;;;;5184637;23;20023;-86
2023/01/23 10:34:57;;;;;;;17.02;15.93;;;0.60;99.90;;;;;;5158873;23;20096;-86
2023/01/23 10:37:39;;;;;;;17.98;16.92;;;0.60;99.90;;;;;;5181463;23;20327;-86
2023/01/23 10:43:01;;;;;;;57.97;46.80;;;0.50;99.90;;;;;;5181150;23;20109;-86
2023/01/23 10:45:21;;;;;;;42.00;38.22;;;0.50;99.90;;;;;;5174927;23;20022;-86
2023/01/23 10:47:47;;;;;;;35.90;33.20;;;0.50;99.90;;;;;;5162021;23;20088;-85
2023/01/23 10:50:14;;;;;;;28.42;27.15;;;0.50;99.90;;;;;;5183381;23;20023;-86
2023/01/23 10:52:35;;;;;;;27.23;26.23;;;0.50;99.90;;;;;;5161950;23;20334;-86
2023/01/23 10:54:55;;;;;;;30.48;28.90;;;0.50;99.90;;;;;;5176124;23;20035;-85
2023/01/23 10:57:15;;;;;;;33.67;30.33;;;0.60;99.90;;;;;;5152411;23;20024;-85
2023/01/23 10:59:52;;;;;;;15.88;15.23;;;0.60;99.90;;;;;;5136871;23;20028;-85
2023/01/23 11:02:12;;;;;;;12.70;12.40;;;0.70;99.90;;;;;;5153283;23;20024;-85
2023/01/23 11:04:35;;;;;;;10.85;10.75;;;0.70;99.90;;;;;;5172875;23;20066;-84
2023/01/23 11:07:04;;;;;;;14.23;13.70;;;0.80;99.90;;;;;;5174752;23;20022;-84
2023/01/23 11:09:24;;;;;;;14.40;14.02;;;0.80;99.90;;;;;;5152941;23;20035;-84
2023/01/23 11:11:57;;;;;;;9.13;8.82;;;0.70;99.90;;;;;;5181209;23;20027;-84
2023/01/23 11:14:22;;;;;;;11.82;11.68;;;0.60;99.90;;;;;;5172839;23;20046;-84
2023/01/23 11:16:42;;;;;;;12.50;12.27;;;0.70;99.90;;;;;;5181183;23;20255;-84
2023/01/23 11:19:16;;;;;;;15.02;14.30;;;0.70;99.90;;;;;;5172650;23;20062;-84
2023/01/23 11:21:56;;;;;;;11.80;11.52;;;0.80;99.90;;;;;;5174621;23;20377;-84
2023/01/23 11:24:18;;;;;;;13.65;13.25;;;0.70;99.90;;;;;;5174745;23;20096;-84
2023/01/23 11:26:42;;;;;;;18.50;14.27;;;0.70;99.90;;;;;;5150816;23;20022;-84
2023/01/23 11:29:19;;;;;;;16.40;15.70;;;0.70;99.90;;;;;;5172558;23;20059;-84
2023/01/23 11:31:40;;;;;;;14.80;14.20;;;0.80;99.90;;;;;;5174635;23;20046;-84
2023/01/23 11:34:09;;;;;;;13.40;12.98;;;0.90;99.90;;;;;;5172612;23;20046;-84
2023/01/23 11:36:57;;;;;;;8.57;8.48;;;1.00;99.90;;;;;;5161808;23;20083;-84
2023/01/23 11:39:38;;;;;;;8.38;8.18;;;1.00;99.90;;;;;;5172581;23;20026;-84
2023/01/23 11:41:58;;;;;;;8.55;8.43;;;1.00;99.90;;;;;;5175730;23;20395;-84
2023/01/23 11:44:20;;;;;;;7.80;7.70;;;1.00;99.90;;;;;;5153147;23;20088;-84
2023/01/23 11:46:45;;;;;;;7.10;7.00;;;1.00;99.90;;;;;;5175264;23;20298;-84
2023/01/23 11:49:12;;;;;;;11.65;11.25;;;1.10;99.90;;;;;;5128298;23;20331;-84
2023/01/23 11:51:32;;;;;;;10.77;10.57;;;1.30;99.90;;;;;;5158349;23;20386;-84
2023/01/23 11:54:01;;;;;;;12.20;11.90;;;1.30;99.90;;;;;;5153190;23;20068;-84
2023/01/23 11:56:33;;;;;;;13.07;12.57;;;1.10;99.90;;;;;;5172386;23;20027;-84
2023/01/23 11:59:23;;;;;;;11.93;11.63;;;1.00;99.90;;;;;;5172497;23;20023;-84
2023/01/23 12:01:49;;;;;;;13.35;12.95;;;1.00;99.90;;;;;;5152974;23;20072;-84
2023/01/23 12:04:56;;;;;;;16.35;15.15;;;1.00;99.90;;;;;;5156193;23;20084;-84
2023/01/23 12:07:24;;;;;;;10.52;10.23;;;1.00;99.90;;;;;;5180786;23;20244;-84
2023/01/23 12:09:52;;;;;;;13.30;12.90;;;0.90;99.90;;;;;;5180815;23;20028;-84
2023/01/23 12:13:05;;;;;;;17.42;16.42;;;0.80;99.90;;;;;;5153046;23;20036;-84
2023/01/23 12:15:49;;;;;;;12.25;11.95;;;0.80;99.90;;;;;;5180730;23;20019;-84
2023/01/23 12:18:39;;;;;;;12.02;11.82;;;0.80;99.90;;;;;;5175501;23;20027;-84
2023/01/23 12:21:10;;;;;;;20.20;19.50;;;0.90;99.90;;;;;;5173219;23;20024;-84
2023/01/23 12:23:49;;;;;;;18.45;17.95;;;1.00;99.90;;;;;;5162554;23;20346;-84
2023/01/23 12:26:23;;;;;;;14.35;14.15;;;1.10;99.90;;;;;;5154228;23;20039;-84
2023/01/23 12:29:21;;;;;;;15.30;14.90;;;1.10;99.90;;;;;;5173507;23;20027;-84
2023/01/23 12:31:53;;;;;;;22.48;21.92;;;1.10;99.90;;;;;;5176701;23;20090;-84
2023/01/23 12:34:32;;;;;;;24.30;23.77;;;1.00;99.90;;;;;;5173404;23;20062;-84
2023/01/23 12:37:23;;;;;;;32.97;31.98;;;0.80;99.90;;;;;;5173375;23;20345;-83
2023/01/23 12:40:25;;;;;;;31.67;30.58;;;0.60;99.90;;;;;;5173486;23;20095;-83
2023/01/23 12:43:07;;;;;;;30.52;29.52;;;0.40;99.90;;;;;;5176569;23;20267;-84